»·PEaware :: WAT295 KSBD-KAVX

WAT295 :: KSBD-KAVX

FLIGHT INFORMATION

Flight Status: Arrived
Operator: Unknown
More flights by this operator :: More flights under this callsign
Pilot: Corentin D. (28157)
Aircraft: CESSNA 510 CITATION MUSTANG
(C510)
More flights by this aircraft type
Origin: KSBD San Bernardino Intl
United States
Destination: KAVX Catalina
United States
More flights between these airports :: More routes between these airports
Route: +PDZ V16 PRADO V363 DANAH SXC065 SXC
File this flight plan on PilotEdge
Remarks: TEC route ONTP8
Altitude:
(Current/Filed)
7,000ft
Speed:
(Current/Filed)
250kts
Departed: 16-Jul-20 02:20 PM
Arrived: 16-Jul-20 02:44 PM
Distance/Time
Traveled:
72nm/0:24
Distance/Time
To Go:
Arrived

Flight Plot

Page will automatically refresh every two minutes.


Map Options




Map Legend


Flown Route
Filed Route
Departure Airport
Arrival Airport
Navaid (VOR, NDB)
Fix

Horizontal Profiles

Position Reports

Time Latitude Longitude Heading Altitude Ground
Speed
16-Jul-20 13:58 34.104716 -117.245515 0 1106ft 0kts
16-Jul-20 13:59 34.104716 -117.245515 325 1106ft 0kts
16-Jul-20 14:00 34.104716 -117.245515 325 1106ft 0kts
16-Jul-20 14:01 34.104716 -117.245515 325 1106ft 0kts
16-Jul-20 14:02 34.104716 -117.245515 325 1106ft 0kts
16-Jul-20 14:03 34.104716 -117.245515 325 1106ft 0kts
16-Jul-20 14:04 34.104716 -117.245515 325 1106ft 0kts
16-Jul-20 14:05 34.104716 -117.245515 325 1106ft 0kts
16-Jul-20 14:06 34.104716 -117.245515 325 1106ft 0kts
16-Jul-20 14:07 34.104716 -117.245515 325 1106ft 0kts
16-Jul-20 14:08 34.104716 -117.245515 325 1106ft 0kts
16-Jul-20 14:09 34.104716 -117.245515 325 1106ft 0kts
16-Jul-20 14:10 34.104716 -117.245515 325 1106ft 0kts
16-Jul-20 14:11 34.104716 -117.245515 325 1106ft 0kts
16-Jul-20 14:12 34.104716 -117.245515 325 1106ft 0kts
16-Jul-20 14:13 34.104026 -117.244164 111 1107ft 19kts
16-Jul-20 14:14 34.102134 -117.237081 108 1120ft 29kts
16-Jul-20 14:15 34.099928 -117.228117 97 1141ft 30kts
16-Jul-20 14:16 34.101086 -117.219844 156 1162ft 7kts
16-Jul-20 14:17 34.100841 -117.219755 164 1162ft 0kts
16-Jul-20 14:18 34.099799 -117.219848 232 1161ft 30kts
16-Jul-20 14:19 34.084422 -117.254218 233 2587ft 172kts
16-Jul-20 14:20 34.053772 -117.304284 234 6278ft 203kts
16-Jul-20 14:21 34.014644 -117.369684 233 7022ft 262kts
16-Jul-20 14:22 33.971287 -117.442057 234 7027ft 266kts
16-Jul-20 14:23 33.927892 -117.514860 239 7024ft 268kts
16-Jul-20 14:24 33.919663 -117.603072 271 7029ft 269kts
16-Jul-20 14:25 33.921438 -117.693870 271 7024ft 275kts
16-Jul-20 14:26 33.895244 -117.774601 209 7026ft 280kts
16-Jul-20 14:27 33.819919 -117.782116 179 7027ft 267kts
16-Jul-20 14:28 33.748315 -117.764689 159 7033ft 262kts
16-Jul-20 14:29 33.679019 -117.733688 164 7017ft 265kts
16-Jul-20 14:30 33.606499 -117.719199 171 7017ft 264kts
16-Jul-20 14:31 33.533561 -117.707968 179 7010ft 264kts
16-Jul-20 14:32 33.475022 -117.754023 244 7014ft 275kts
16-Jul-20 14:33 33.459670 -117.844817 258 7017ft 278kts
16-Jul-20 14:34 33.446642 -117.935634 258 6970ft 276kts
16-Jul-20 14:35 33.434633 -118.017604 258 5532ft 237kts
16-Jul-20 14:36 33.423493 -118.092462 259 4037ft 223kts
16-Jul-20 14:37 33.414005 -118.159436 258 3974ft 188kts
16-Jul-20 14:38 33.406205 -118.219911 274 3982ft 174kts
16-Jul-20 14:39 33.414275 -118.276939 281 3482ft 180kts
16-Jul-20 14:40 33.422049 -118.330779 281 2856ft 130kts
16-Jul-20 14:41 33.427203 -118.368154 273 2342ft 104kts
16-Jul-20 14:42 33.414130 -118.400262 235 1835ft 107kts
16-Jul-20 14:43 33.404350 -118.416882 234 1598ft 15kts
16-Jul-20 14:44 33.403493 -118.416228 103 1596ft 0kts
16-Jul-20 14:45 33.403493 -118.416228 103 1596ft 0kts
16-Jul-20 14:46 33.404012 -118.414590 262 1584ft 0kts
16-Jul-20 14:47 33.404012 -118.414590 262 1584ft 0kts
16-Jul-20 14:48 33.404012 -118.414590 262 1584ft 0kts
16-Jul-20 14:49 33.404012 -118.414590 262 1584ft 0kts
16-Jul-20 14:50 33.404012 -118.414590 262 1584ft 0kts
16-Jul-20 14:51 33.404012 -118.414590 262 1584ft 0kts
16-Jul-20 14:52 33.404012 -118.414590 262 1584ft 0kts
16-Jul-20 14:53 33.404012 -118.414590 262 1584ft 0kts
16-Jul-20 14:54 33.404012 -118.414590 262 1584ft 0kts
16-Jul-20 14:55 33.402239 -118.418883 305 1603ft 0kts

Navigation Log

Ident Type
Flight plan parsing failed, navigation log unavailable